createdAt,value
2023-04-08T00:00:27.205Z,72.54
2023-04-08T00:04:59.808Z,72.51
2023-04-08T00:06:56.468Z,72.51
2023-04-08T00:12:28.512Z,72.33
2023-04-08T00:14:25.526Z,72.13
2023-04-08T00:21:46.603Z,72.03
2023-04-08T00:23:16.400Z,72.23
2023-04-08T00:25:51.521Z,72.13
2023-04-08T00:32:48.330Z,71.95
2023-04-08T00:35:40.761Z,71.85
2023-04-08T00:37:39.524Z,71.85
2023-04-08T00:39:11.284Z,71.85
2023-04-08T00:40:38.827Z,71.64
2023-04-08T00:43:01.446Z,71.55
2023-04-08T00:49:24.246Z,71.64
2023-04-08T00:52:55.757Z,71.85
2023-04-08T00:54:24.823Z,71.99
2023-04-08T00:56:15.996Z,71.95
2023-04-08T01:02:20.072Z,72.30
2023-04-08T01:06:57.693Z,72.19
2023-04-08T01:13:39.094Z,72.50
2023-04-08T01:15:06.648Z,72.40
2023-04-08T01:17:51.418Z,72.71
2023-04-08T01:19:58.469Z,72.61
2023-04-08T01:21:27.368Z,72.64
2023-04-08T01:26:58.197Z,72.95
2023-04-08T01:29:50.550Z,72.95
2023-04-08T01:32:23.128Z,73.05
2023-04-08T01:34:32.641Z,73.16
2023-04-08T01:38:53.561Z,73.39
2023-04-08T01:41:24.829Z,73.36
2023-04-08T01:43:52.682Z,73.39
2023-04-08T01:46:51.031Z,73.16
2023-04-08T01:52:21.032Z,73.16
2023-04-08T01:54:10.682Z,72.85
2023-04-08T01:55:41.635Z,73.29
2023-04-08T01:58:01.516Z,73.29
2023-04-08T02:01:36.079Z,73.39
2023-04-08T02:03:06.839Z,73.50
2023-04-08T02:06:10.076Z,73.50
2023-04-08T02:08:29.709Z,73.71
2023-04-08T02:10:20.542Z,73.71
2023-04-08T02:12:19.224Z,73.71
2023-04-08T02:13:48.108Z,73.74
2023-04-08T02:16:20.842Z,74.15
2023-04-08T02:17:48.789Z,74.05
2023-04-08T02:19:48.797Z,74.15
2023-04-08T02:21:17.717Z,74.15
2023-04-08T02:23:36.532Z,74.05
2023-04-08T02:27:19.617Z,74.15
2023-04-08T02:32:09.868Z,74.71
2023-04-08T02:38:09.087Z,74.71
2023-04-08T02:42:18.868Z,74.95
2023-04-08T02:44:07.917Z,74.95
2023-04-08T02:52:52.862Z,75.81
2023-04-08T03:04:50.652Z,77.29
2023-04-08T03:08:18.560Z,77.81
2023-04-08T03:12:17.390Z,77.70
2023-04-08T03:15:14.614Z,78.02
2023-04-08T03:19:16.585Z,77.70
2023-04-08T03:21:05.624Z,77.70
2023-04-08T03:23:24.004Z,77.60
2023-04-08T03:28:59.754Z,78.05
2023-04-08T03:30:58.470Z,78.16
2023-04-08T03:35:40.387Z,78.05
2023-04-08T03:43:18.763Z,78.40
2023-04-08T03:45:46.225Z,78.40
2023-04-08T03:47:45.039Z,78.50
2023-04-08T03:49:15.744Z,78.61
2023-04-08T03:51:34.127Z,78.61
2023-04-08T03:53:21.716Z,78.61
2023-04-08T03:57:03.054Z,78.92
2023-04-08T03:59:36.407Z,79.02
2023-04-08T04:05:01.023Z,79.64
2023-04-08T04:11:37.943Z,81.09
2023-04-08T04:16:06.733Z,80.68
2023-04-08T04:18:05.874Z,80.57
2023-04-08T04:20:57.631Z,80.78
2023-04-08T04:22:30.507Z,81.40
2023-04-08T04:24:27.736Z,81.57
2023-04-08T04:32:00.996Z,81.95
2023-04-08T04:40:27.689Z,81.35
2023-04-08T04:44:36.104Z,81.05
2023-04-08T04:46:37.963Z,81.05
2023-04-08T04:48:12.912Z,80.84
2023-04-08T04:50:43.205Z,80.80
2023-04-08T04:55:04.160Z,80.60
2023-04-08T04:58:00.231Z,80.49
2023-04-08T05:01:25.081Z,80.35
2023-04-08T05:02:54.318Z,80.25
2023-04-08T05:04:51.269Z,80.15
2023-04-08T05:06:24.974Z,80.15
2023-04-08T05:11:01.141Z,80.15
2023-04-08T05:15:16.754Z,80.11
2023-04-08T05:18:39.926Z,80.11
2023-04-08T05:20:59.094Z,80.21
2023-04-08T05:22:57.231Z,80.32
2023-04-08T05:26:50.663Z,80.11
2023-04-08T05:30:29.523Z,80.07
2023-04-08T05:32:46.892Z,79.97
2023-04-08T05:36:14.623Z,79.97
2023-04-08T05:37:43.588Z,79.97
2023-04-08T05:39:46.778Z,79.86
2023-04-08T05:41:16.946Z,79.76
2023-04-08T05:44:15.185Z,79.72
2023-04-08T05:48:24.367Z,79.41
2023-04-08T05:53:49.489Z,79.21
2023-04-08T05:56:16.713Z,79.00
2023-04-08T05:58:15.623Z,78.90
2023-04-08T06:05:30.038Z,78.80
2023-04-08T06:10:13.975Z,78.69
2023-04-08T06:12:11.841Z,78.69
2023-04-08T06:13:40.746Z,78.80
2023-04-08T06:17:00.138Z,79.00
2023-04-08T06:18:32.018Z,78.90
2023-04-08T06:20:06.862Z,78.90
2023-04-08T06:24:00.658Z,78.80
2023-04-08T06:30:25.005Z,79.00
2023-04-08T06:33:14.475Z,79.07
2023-04-08T06:36:12.752Z,79.17
2023-04-08T06:37:41.610Z,79.38
2023-04-08T06:40:21.071Z,79.58
2023-04-08T06:44:17.536Z,80.30
2023-04-08T06:45:45.878Z,80.10
2023-04-08T06:50:44.321Z,79.61
2023-04-08T06:52:14.310Z,79.61
2023-04-08T06:54:40.870Z,79.37
2023-04-08T06:56:38.712Z,79.06
2023-04-08T06:59:00.494Z,78.61
2023-04-08T07:00:27.951Z,78.72
2023-04-08T07:01:57.106Z,78.61
2023-04-08T07:05:27.986Z,78.82
2023-04-08T07:06:56.950Z,78.68
2023-04-08T07:08:55.817Z,78.78
2023-04-08T07:10:45.524Z,78.44
2023-04-08T07:12:44.635Z,78.09
2023-04-08T07:25:01.267Z,76.55
2023-04-08T07:30:44.727Z,76.10
2023-04-08T07:32:16.309Z,75.59
2023-04-08T07:37:24.435Z,74.70
2023-04-08T07:43:35.329Z,74.05
2023-04-08T07:48:17.611Z,73.47
2023-04-08T07:52:09.055Z,72.21
2023-04-08T07:53:35.668Z,71.80
2023-04-08T07:58:25.520Z,71.73
2023-04-08T08:00:24.366Z,71.62
2023-04-08T08:06:36.095Z,70.13
2023-04-08T08:08:55.877Z,70.61
2023-04-08T08:10:26.369Z,70.68
2023-04-08T08:13:37.325Z,68.94
2023-04-08T08:15:26.129Z,69.11
2023-04-08T08:17:28.204Z,69.01
2023-04-08T08:21:39.642Z,68.66
2023-04-08T08:29:50.610Z,68.53
2023-04-08T08:32:21.703Z,67.92
2023-04-08T08:35:30.158Z,67.99
2023-04-08T08:37:33.353Z,67.99
2023-04-08T08:39:23.856Z,67.89
2023-04-08T08:40:32.791Z,68.19
2023-04-08T08:42:21.869Z,68.23
2023-04-08T08:47:11.765Z,69.18
2023-04-08T08:49:52.575Z,69.15
2023-04-08T08:51:23.412Z,69.21
2023-04-08T08:53:41.235Z,68.40
2023-04-08T08:56:13.458Z,68.50
2023-04-08T09:00:33.214Z,66.09
2023-04-08T09:02:03.051Z,66.47
2023-04-08T09:03:51.614Z,65.59
2023-04-08T09:05:19.917Z,64.17
2023-04-08T09:06:50.693Z,63.93
2023-04-08T09:08:43.284Z,62.78
2023-04-08T09:10:42.438Z,62.43
2023-04-08T09:12:12.694Z,62.77
2023-04-08T09:14:11.918Z,63.58
2023-04-08T09:17:27.362Z,62.90
2023-04-08T09:18:57.594Z,61.78
2023-04-08T09:21:47.127Z,62.08
2023-04-08T09:24:37.707Z,62.97
2023-04-08T09:27:30.756Z,63.28
2023-04-08T09:31:35.800Z,63.28
2023-04-08T09:32:36.538Z,63.07
2023-04-08T09:33:35.836Z,62.33
2023-04-08T09:37:04.093Z,60.54
2023-04-08T09:41:00.291Z,61.36
2023-04-08T09:47:20.935Z,61.20
2023-04-08T09:49:12.339Z,60.61
2023-04-08T09:54:16.103Z,61.13
2023-04-08T09:55:45.009Z,61.30
2023-04-08T09:57:14.949Z,61.37
2023-04-08T09:59:26.690Z,60.50
2023-04-08T10:01:48.148Z,59.66
2023-04-08T10:06:03.785Z,58.47
2023-04-08T10:07:35.570Z,57.80
2023-04-08T10:09:07.442Z,57.98
2023-04-08T10:10:53.740Z,56.81
2023-04-08T10:14:39.299Z,55.47
2023-04-08T10:21:07.029Z,56.43
2023-04-08T10:27:40.087Z,49.90
2023-04-08T10:31:27.647Z,51.46
2023-04-08T10:32:59.878Z,50.96
2023-04-08T10:34:27.726Z,50.10
2023-04-08T10:36:19.020Z,50.78
2023-04-08T10:37:48.677Z,51.66
2023-04-08T10:40:08.149Z,53.75
2023-04-08T10:42:25.398Z,54.25
2023-04-08T10:44:54.535Z,53.72
2023-04-08T10:47:23.377Z,49.71
2023-04-08T10:49:44.174Z,46.61
2023-04-08T10:51:44.780Z,46.46
2023-04-08T10:58:16.557Z,46.30
2023-04-08T11:02:23.518Z,46.37
2023-04-08T11:05:23.495Z,47.03
2023-04-08T11:07:12.294Z,45.54
2023-04-08T11:08:43.151Z,44.12
2023-04-08T11:12:10.421Z,44.78
2023-04-08T11:13:38.957Z,46.15
2023-04-08T11:15:27.695Z,46.65
2023-04-08T11:18:00.704Z,48.43
2023-04-08T11:19:28.622Z,49.48
2023-04-08T11:21:00.309Z,50.18
2023-04-08T11:22:29.290Z,50.23
2023-04-08T11:23:59.212Z,51.01
2023-04-08T11:26:26.571Z,49.68
2023-04-08T11:29:16.683Z,49.90
2023-04-08T11:31:14.935Z,51.76
2023-04-08T11:33:55.052Z,53.50
2023-04-08T11:35:44.218Z,53.20
2023-04-08T11:37:14.020Z,53.02
2023-04-08T11:40:18.410Z,53.55
2023-04-08T11:43:31.282Z,54.46
2023-04-08T11:45:01.143Z,54.16
2023-04-08T11:49:37.791Z,55.87
2023-04-08T11:51:08.133Z,57.59
2023-04-08T11:54:01.969Z,57.52
2023-04-08T11:58:34.062Z,58.09
2023-04-08T12:02:43.176Z,56.52
2023-04-08T12:05:30.720Z,54.66
2023-04-08T12:07:48.633Z,55.69
2023-04-08T12:10:20.449Z,55.29
2023-04-08T12:15:13.285Z,55.24
2023-04-08T12:18:34.175Z,54.61
2023-04-08T12:21:25.234Z,56.07
2023-04-08T12:23:00.522Z,56.77
2023-04-08T12:25:50.834Z,56.50
2023-04-08T12:29:00.229Z,57.59
2023-04-08T12:31:18.360Z,59.14
2023-04-08T12:36:42.156Z,58.23
2023-04-08T12:40:03.424Z,58.70
2023-04-08T12:42:00.697Z,58.09
2023-04-08T12:46:01.668Z,58.33
2023-04-08T12:47:59.020Z,60.07
2023-04-08T12:50:47.859Z,59.06
2023-04-08T12:53:36.719Z,59.49
2023-04-08T12:56:06.029Z,61.00
2023-04-08T12:57:53.303Z,61.80
2023-04-08T13:03:30.707Z,61.37
2023-04-08T13:05:46.388Z,61.27
2023-04-08T13:09:22.272Z,61.58
2023-04-08T13:10:23.087Z,62.08
2023-04-08T13:11:22.237Z,61.78
2023-04-08T13:13:40.989Z,61.98
2023-04-08T13:15:44.876Z,62.18
2023-04-08T13:19:03.993Z,62.95
2023-04-08T13:20:32.526Z,63.32
2023-04-08T13:25:23.319Z,64.43
2023-04-08T13:29:12.449Z,64.84
2023-04-08T13:31:12.271Z,64.61
2023-04-08T13:33:13.886Z,64.10
2023-04-08T13:35:11.791Z,63.49
2023-04-08T13:39:14.596Z,63.69
2023-04-08T13:40:48.163Z,63.49
2023-04-08T13:44:03.260Z,63.95
2023-04-08T13:46:22.899Z,64.76
2023-04-08T13:55:10.598Z,65.14
2023-04-08T13:57:31.262Z,65.04
2023-04-08T14:05:13.280Z,64.13
2023-04-08T14:09:43.133Z,63.62
2023-04-08T14:12:32.782Z,63.69
2023-04-08T14:19:37.224Z,61.37
2023-04-08T14:24:23.447Z,62.08
2023-04-08T14:26:44.484Z,61.14
2023-04-08T14:31:47.628Z,61.47
2023-04-08T14:33:37.346Z,62.21
2023-04-08T14:38:36.001Z,62.92
2023-04-08T14:40:07.638Z,62.82
2023-04-08T14:42:27.376Z,62.75
2023-04-08T14:43:56.341Z,62.85
2023-04-08T14:46:03.015Z,63.35
2023-04-08T14:48:54.102Z,63.39
2023-04-08T14:51:06.561Z,64.30
2023-04-08T14:53:56.183Z,64.23
2023-04-08T15:00:00.780Z,65.00
2023-04-08T15:01:30.490Z,65.81
2023-04-08T15:05:03.685Z,66.15
2023-04-08T15:09:12.523Z,66.76
2023-04-08T15:14:32.356Z,66.46
2023-04-08T15:16:32.957Z,66.63
2023-04-08T15:18:02.718Z,66.72
2023-04-08T15:23:36.539Z,66.79
2023-04-08T15:25:08.406Z,67.30
2023-04-08T15:26:36.427Z,67.71
2023-04-08T15:32:45.067Z,67.60
2023-04-08T15:34:13.703Z,67.80
2023-04-08T15:35:44.655Z,67.80
2023-04-08T15:37:12.605Z,68.11
2023-04-08T15:41:30.442Z,68.11
2023-04-08T15:43:58.405Z,68.41
2023-04-08T15:45:48.069Z,68.35
2023-04-08T15:47:20.570Z,68.35
2023-04-08T15:48:48.818Z,68.41
2023-04-08T15:51:16.940Z,68.65
2023-04-08T15:53:18.999Z,68.96
2023-04-08T15:56:25.442Z,68.75
2023-04-08T15:58:24.719Z,68.79
2023-04-08T15:59:54.582Z,69.29
2023-04-08T16:01:43.632Z,69.29
2023-04-08T16:03:42.325Z,69.19
2023-04-08T16:06:52.728Z,69.29
2023-04-08T16:17:16.505Z,70.34
2023-04-08T16:19:45.535Z,70.45
2023-04-08T16:23:43.283Z,70.95
2023-04-08T16:27:32.845Z,70.24
2023-04-08T16:29:20.237Z,70.34
2023-04-08T16:31:22.614Z,70.75
2023-04-08T16:33:21.268Z,70.58
2023-04-08T16:34:49.944Z,70.89
2023-04-08T16:39:26.388Z,71.50
2023-04-08T16:40:56.229Z,71.60
2023-04-08T16:45:20.070Z,71.73
2023-04-08T16:47:50.698Z,71.73
2023-04-08T16:52:39.307Z,72.34
2023-04-08T16:58:54.135Z,72.01
2023-04-08T17:01:53.661Z,71.50
2023-04-08T17:03:23.577Z,71.60
2023-04-08T17:06:23.032Z,71.91
2023-04-08T17:07:51.904Z,71.70
2023-04-08T17:10:23.792Z,71.60
2023-04-08T17:12:51.611Z,71.50
2023-04-08T17:14:41.391Z,71.39
2023-04-08T17:23:17.288Z,71.91
2023-04-08T17:25:44.711Z,71.91
2023-04-08T17:29:05.320Z,71.60
2023-04-08T17:30:35.283Z,71.91
2023-04-08T17:32:15.626Z,71.91
2023-04-08T17:33:46.193Z,72.01
2023-04-08T17:35:15.907Z,72.01
2023-04-08T17:37:56.227Z,72.31
2023-04-08T17:39:57.245Z,72.55
2023-04-08T17:48:15.212Z,72.65
2023-04-08T17:53:21.998Z,72.65
2023-04-08T17:54:53.572Z,72.55
2023-04-08T17:56:13.701Z,72.75
2023-04-08T17:59:36.011Z,72.75
2023-04-08T18:02:11.088Z,73.40
2023-04-08T18:04:29.785Z,73.30
2023-04-08T18:10:02.911Z,74.11
2023-04-08T18:11:12.041Z,74.01
2023-04-08T18:13:16.488Z,74.21
2023-04-08T18:17:46.991Z,74.66
2023-04-08T18:26:35.465Z,74.66
2023-04-08T18:29:24.286Z,74.66
2023-04-08T18:30:57.034Z,74.66
2023-04-08T18:32:44.483Z,74.86
2023-04-08T18:34:13.740Z,74.79
2023-04-08T18:36:46.792Z,75.07
2023-04-08T18:40:57.304Z,75.41
2023-04-08T18:42:25.494Z,75.51
2023-04-08T18:45:45.654Z,75.51
2023-04-08T18:48:19.159Z,75.61
2023-04-08T18:49:47.163Z,75.41
2023-04-08T18:52:27.530Z,75.31
2023-04-08T18:53:55.545Z,75.31
2023-04-08T18:56:15.728Z,75.41
2023-04-08T18:59:05.388Z,75.71
2023-04-08T19:00:57.182Z,75.82
2023-04-08T19:01:57.098Z,76.02
2023-04-08T19:02:57.041Z,76.12
2023-04-08T19:05:58.978Z,76.02
2023-04-08T19:07:26.164Z,75.92
2023-04-08T19:08:56.136Z,75.82
2023-04-08T19:13:00.666Z,76.16
2023-04-08T19:14:30.671Z,76.32
2023-04-08T19:16:50.629Z,76.12
2023-04-08T19:18:28.364Z,76.12
2023-04-08T19:23:25.454Z,75.92
2023-04-08T19:25:27.415Z,75.92
2023-04-08T19:28:15.332Z,76.02
2023-04-08T19:31:55.153Z,76.22
2023-04-08T19:34:50.908Z,76.53
2023-04-08T19:40:23.348Z,76.63
2023-04-08T19:41:50.634Z,76.43
2023-04-08T19:45:53.195Z,76.12
2023-04-08T19:49:37.882Z,76.32
2023-04-08T19:51:11.170Z,76.53
2023-04-08T19:52:41.724Z,76.63
2023-04-08T19:55:51.910Z,76.73
2023-04-08T19:58:12.784Z,76.77
2023-04-08T19:59:41.770Z,76.97
2023-04-08T20:01:13.905Z,76.87
2023-04-08T20:03:37.538Z,77.08
2023-04-08T20:05:07.582Z,76.87
2023-04-08T20:07:40.362Z,76.77
2023-04-08T20:09:12.218Z,76.87
2023-04-08T20:13:28.479Z,77.08
2023-04-08T20:15:50.278Z,77.18
2023-04-08T20:17:23.057Z,77.18
2023-04-08T20:18:53.824Z,76.97
2023-04-08T20:23:22.728Z,77.38
2023-04-08T20:28:33.592Z,77.48
2023-04-08T20:30:39.449Z,77.93
2023-04-08T20:33:49.054Z,78.23
2023-04-08T20:37:32.336Z,77.62
2023-04-08T20:43:08.365Z,78.88
2023-04-08T20:44:36.344Z,79.02
2023-04-08T20:46:41.835Z,79.19
2023-04-08T20:48:11.648Z,78.99
2023-04-08T20:52:33.952Z,78.58
2023-04-08T20:56:38.564Z,79.09
2023-04-08T20:58:09.656Z,78.88
2023-04-08T21:01:00.260Z,78.44
2023-04-08T21:03:52.030Z,77.72
2023-04-08T21:05:39.908Z,78.68
2023-04-08T21:08:05.569Z,78.44
2023-04-08T21:11:14.590Z,78.48
2023-04-08T21:13:35.837Z,79.09
2023-04-08T21:15:06.888Z,78.75
2023-04-08T21:16:39.891Z,78.44
2023-04-08T21:22:51.089Z,78.34
2023-04-08T21:25:26.035Z,78.34
2023-04-08T21:33:43.534Z,78.78
2023-04-08T21:37:09.772Z,79.53
2023-04-08T21:40:07.139Z,79.19
2023-04-08T21:42:54.889Z,79.33
2023-04-08T21:46:31.842Z,79.43
2023-04-08T21:49:05.295Z,79.13
2023-04-08T21:51:43.661Z,80.08
2023-04-08T21:56:43.492Z,79.74
2023-04-08T22:01:30.606Z,80.19
2023-04-08T22:10:42.499Z,79.64
2023-04-08T22:13:36.450Z,79.29
2023-04-08T22:17:02.787Z,78.99
2023-04-08T22:19:15.978Z,78.99
2023-04-08T22:20:25.692Z,78.99
2023-04-08T22:23:30.972Z,78.78
2023-04-08T22:25:33.245Z,78.64
2023-04-08T22:30:20.418Z,78.78
2023-04-08T22:31:49.332Z,78.78
2023-04-08T22:37:59.785Z,78.88
2023-04-08T22:39:48.088Z,78.99
2023-04-08T22:41:39.700Z,79.19
2023-04-08T22:43:11.725Z,79.19
2023-04-08T22:53:47.993Z,79.09
2023-04-08T22:57:55.917Z,79.19
2023-04-08T22:59:24.733Z,79.29
2023-04-08T23:00:56.885Z,79.29
2023-04-08T23:04:07.955Z,79.50
2023-04-08T23:09:07.114Z,79.64
2023-04-08T23:11:16.785Z,79.84
2023-04-08T23:13:34.791Z,79.50
2023-04-08T23:15:25.440Z,79.29
2023-04-08T23:20:00.167Z,79.64
2023-04-08T23:24:39.067Z,79.60
2023-04-08T23:32:07.402Z,79.64
2023-04-08T23:39:13.905Z,79.84
2023-04-08T23:41:49.805Z,79.84
2023-04-08T23:45:09.595Z,80.15
2023-04-08T23:49:52.756Z,80.05
2023-04-08T23:54:22.658Z,80.05
2023-04-08T23:55:55.567Z,79.84
2023-04-08T23:58:36.869Z,79.94
2023-04-08T23:59:13.046Z,79.84
